Time;durP1;ratioP1;P1;durP2;ratioP2;P2;SDS_P1;SDS_P2;PMS_P1;PMS_P2;Temp;Humidity;BMP_temperature;BMP_pressure;BME280_temperature;BME280_humidity;BME280_pressure;Samples;Min_cycle;Max_cycle;Signal;HPM_P1;HPM_P2
2021/06/09 00:02:37;;;;;;;13.93;9.90;;;;;;;16.97;100.00;101968.84;6249590;28;20438;-78
2021/06/09 00:05:38;;;;;;;15.52;10.43;;;;;;;16.94;100.00;101969.06;6249957;28;20073;-79
2021/06/09 00:08:39;;;;;;;15.93;10.35;;;;;;;16.87;100.00;101966.88;6250061;28;20188;-78
2021/06/09 00:11:40;;;;;;;13.88;9.75;;;;;;;16.81;100.00;101967.25;6248513;28;20136;-78
2021/06/09 00:14:42;;;;;;;13.80;10.40;;;;;;;16.69;100.00;101972.28;6250335;28;20053;-79
2021/06/09 00:17:43;;;;;;;14.68;10.93;;;;;;;16.69;100.00;101968.78;6248243;28;20456;-78
2021/06/09 00:20:44;;;;;;;16.13;10.20;;;;;;;16.62;100.00;101972.72;6264643;28;20519;-78
2021/06/09 00:23:46;;;;;;;16.90;10.90;;;;;;;16.53;100.00;101978.59;6274764;28;20053;-77
2021/06/09 00:26:47;;;;;;;16.42;11.25;;;;;;;16.48;100.00;101968.25;6274463;28;20056;-78
2021/06/09 00:29:49;;;;;;;22.08;10.50;;;;;;;16.47;100.00;101972.69;6274570;28;20045;-78
2021/06/09 00:32:50;;;;;;;17.20;11.80;;;;;;;16.45;100.00;101973.75;6273744;28;20048;-78
2021/06/09 00:35:51;;;;;;;22.15;10.57;;;;;;;16.39;100.00;101974.94;6274119;28;20051;-78
2021/06/09 00:38:52;;;;;;;13.90;12.10;;;;;;;16.34;100.00;101968.19;6274146;28;20045;-77
2021/06/09 00:41:53;;;;;;;15.25;11.48;;;;;;;16.35;100.00;101968.13;6273167;28;20127;-78
2021/06/09 00:44:55;;;;;;;20.15;11.68;;;;;;;16.37;100.00;101973.34;6274163;28;20053;-78
2021/06/09 00:47:56;;;;;;;17.77;11.45;;;;;;;16.34;100.00;101969.03;6273779;28;20049;-78
2021/06/09 00:51:01;;;;;;;16.98;11.48;;;;;;;16.31;100.00;101965.75;6273256;28;20543;-78
2021/06/09 00:54:03;;;;;;;18.83;12.93;;;;;;;16.28;100.00;101969.41;6274266;28;20057;-78
2021/06/09 00:57:05;;;;;;;26.65;12.65;;;;;;;16.21;100.00;101965.38;6274023;28;20059;-79
2021/06/09 01:00:10;;;;;;;19.83;12.75;;;;;;;16.16;100.00;101967.44;6272978;28;20048;-78
2021/06/09 01:03:11;;;;;;;19.58;11.95;;;;;;;16.14;100.00;101954.28;6273779;28;20056;-78
2021/06/09 01:06:12;;;;;;;23.75;11.70;;;;;;;16.14;100.00;101959.59;6273560;28;20057;-78
2021/06/09 01:09:13;;;;;;;15.18;12.50;;;;;;;16.16;100.00;101962.16;6266104;28;20389;-78
2021/06/09 01:12:14;;;;;;;17.95;12.68;;;;;;;16.09;100.00;101955.50;6247949;28;20057;-78
2021/06/09 01:15:18;;;;;;;17.27;13.07;;;;;;;16.01;100.00;101960.38;6248432;28;20401;-79
2021/06/09 01:18:20;;;;;;;15.13;12.68;;;;;;;15.94;100.00;101959.84;6246132;28;20149;-81
2021/06/09 01:21:26;;;;;;;15.43;11.98;;;;;;;15.90;100.00;101958.34;6247641;28;20559;-78
2021/06/09 01:24:27;;;;;;;18.25;12.38;;;;;;;15.88;100.00;101955.75;6248505;28;20045;-78
2021/06/09 01:27:28;;;;;;;19.63;12.90;;;;;;;15.86;100.00;101959.47;6248219;28;20049;-78
2021/06/09 01:30:30;;;;;;;13.20;11.35;;;;;;;15.78;100.00;101954.56;6247619;28;20432;-78
2021/06/09 01:33:31;;;;;;;14.43;12.02;;;;;;;15.70;100.00;101949.69;6248580;28;20053;-81
2021/06/09 01:36:35;;;;;;;15.95;12.45;;;;;;;15.68;100.00;101941.00;6248109;28;20049;-78
2021/06/09 01:39:36;;;;;;;17.33;12.40;;;;;;;15.68;100.00;101946.28;6248285;28;20046;-80
2021/06/09 01:42:38;;;;;;;17.45;13.05;;;;;;;15.62;100.00;101943.91;6247431;28;20496;-78
2021/06/09 01:45:39;;;;;;;14.43;12.73;;;;;;;15.59;100.00;101948.56;6248187;28;20042;-78
2021/06/09 01:48:40;;;;;;;16.60;12.10;;;;;;;15.56;100.00;101952.22;6248003;28;20049;-78
2021/06/09 01:51:42;;;;;;;15.30;12.23;;;;;;;15.51;100.00;101953.41;6247135;28;20049;-78
2021/06/09 01:54:44;;;;;;;17.00;12.50;;;;;;;15.51;100.00;101954.28;6247991;28;20515;-81
2021/06/09 01:57:45;;;;;;;20.02;12.23;;;;;;;15.52;100.00;101947.19;6247932;28;20045;-78
2021/06/09 02:00:47;;;;;;;17.05;13.25;;;;;;;15.51;100.00;101954.28;6246702;28;20416;-80
2021/06/09 02:03:49;;;;;;;17.40;12.10;;;;;;;15.38;100.00;101955.88;6248078;28;20050;-78
2021/06/09 02:06:52;;;;;;;16.77;12.68;;;;;;;15.37;100.00;101948.88;6247387;28;20053;-78
2021/06/09 02:09:53;;;;;;;15.30;12.57;;;;;;;15.38;100.00;101958.53;6247493;28;20053;-78
2021/06/09 02:12:57;;;;;;;19.38;13.50;;;;;;;15.47;100.00;101968.63;6246872;28;20053;-78
2021/06/09 02:16:00;;;;;;;19.42;13.60;;;;;;;15.52;100.00;101960.41;6247456;28;20488;-80
2021/06/09 02:19:01;;;;;;;20.48;13.07;;;;;;;15.55;100.00;101958.47;6246121;28;20042;-80
2021/06/09 02:22:05;;;;;;;21.88;13.40;;;;;;;15.56;100.00;101951.38;6246429;28;20573;-79
2021/06/09 02:25:07;;;;;;;17.98;12.55;;;;;;;15.59;100.00;101957.38;6246366;28;20493;-77
2021/06/09 02:28:09;;;;;;;19.20;13.88;;;;;;;15.62;100.00;101954.53;6246389;28;20119;-78
2021/06/09 02:31:12;;;;;;;20.08;12.50;;;;;;;15.69;100.00;101950.63;6245260;28;20053;-79
2021/06/09 02:34:14;;;;;;;14.02;11.60;;;;;;;15.71;100.00;101943.47;6254076;28;20049;-79
2021/06/09 02:37:19;;;;;;;20.70;11.38;;;;;;;15.68;100.00;101950.72;6253771;28;20496;-79
2021/06/09 02:40:21;;;;;;;14.85;10.85;;;;;;;15.60;100.00;101939.66;6253413;28;20048;-80
2021/06/09 02:43:29;;;;;;;15.60;11.20;;;;;;;15.54;100.00;101943.50;6254607;28;20128;-78
2021/06/09 02:46:36;;;;;;;14.52;12.10;;;;;;;15.56;100.00;101944.28;6254331;28;20471;-78
2021/06/09 02:49:39;;;;;;;20.77;13.13;;;;;;;15.59;100.00;101945.91;6253988;28;20104;-80
2021/06/09 02:52:47;;;;;;;19.92;12.25;;;;;;;15.64;100.00;101944.75;6253281;28;20049;-79
2021/06/09 02:56:04;;;;;;;15.45;11.88;;;;;;;15.68;100.00;101941.00;6253586;28;20049;-78
2021/06/09 02:59:17;;;;;;;15.02;12.23;;;;;;;15.63;100.00;101944.81;6251891;28;20045;-80
2021/06/09 03:02:28;;;;;;;18.67;11.38;;;;;;;15.60;100.00;101947.63;6253240;28;20118;-80
2021/06/09 03:05:33;;;;;;;16.73;12.38;;;;;;;15.58;100.00;101949.47;6254135;28;20398;-80
2021/06/09 03:08:41;;;;;;;19.17;11.32;;;;;;;15.57;100.00;101943.31;6255131;28;20416;-79
2021/06/09 03:11:48;;;;;;;15.02;11.27;;;;;;;15.50;100.00;101938.47;6254092;28;20187;-80
2021/06/09 03:15:10;;;;;;;16.00;11.20;;;;;;;15.44;100.00;101935.22;6255172;28;20049;-78
2021/06/09 03:18:17;;;;;;;16.80;11.18;;;;;;;15.37;100.00;101933.84;6253589;28;20077;-78
2021/06/09 03:21:23;;;;;;;16.98;11.50;;;;;;;15.31;100.00;101938.63;6274827;28;20059;-78
2021/06/09 03:24:32;;;;;;;20.27;12.20;;;;;;;15.34;100.00;101949.88;6280704;28;20060;-78
2021/06/09 03:27:40;;;;;;;17.27;12.32;;;;;;;15.35;100.00;101941.03;6279863;28;20060;-78
2021/06/09 03:30:44;;;;;;;15.00;12.27;;;;;;;15.39;100.00;101941.69;6278908;28;20048;-80
2021/06/09 03:33:49;;;;;;;17.88;12.55;;;;;;;15.39;100.00;101933.75;6279586;28;20104;-78
2021/06/09 03:36:52;;;;;;;12.88;10.93;;;;;;;15.39;100.00;101931.09;6279568;28;20053;-78
2021/06/09 03:39:58;;;;;;;16.10;11.10;;;;;;;15.34;100.00;101936.63;6279308;28;20044;-79
2021/06/09 03:43:03;;;;;;;17.10;11.27;;;;;;;15.28;100.00;101941.44;6274348;28;20088;-78
2021/06/09 03:46:06;;;;;;;14.55;11.15;;;;;;;15.29;100.00;101932.53;6275481;28;20056;-79
2021/06/09 03:49:10;;;;;;;17.67;11.07;;;;;;;15.33;100.00;101934.09;6275377;28;20165;-79
2021/06/09 03:52:14;;;;;;;15.30;11.15;;;;;;;15.36;100.00;101936.56;6274613;28;20068;-78
2021/06/09 03:55:22;;;;;;;16.67;10.82;;;;;;;15.36;100.00;101932.13;6275526;28;20059;-78
2021/06/09 03:58:25;;;;;;;15.70;11.43;;;;;;;15.37;100.00;101936.47;6274850;28;20049;-78
2021/06/09 04:01:29;;;;;;;14.20;11.40;;;;;;;15.37;100.00;101935.63;6274564;28;20591;-80
2021/06/09 04:04:32;;;;;;;14.27;10.45;;;;;;;15.40;100.00;101932.81;6274970;28;20049;-79
2021/06/09 04:07:33;;;;;;;15.90;10.73;;;;;;;15.33;100.00;101931.44;6275261;28;20053;-79
2021/06/09 04:10:37;;;;;;;14.10;9.60;;;;;;;15.35;100.00;101934.84;6248885;28;20046;-78
2021/06/09 04:13:39;;;;;;;14.85;10.88;;;;;;;15.35;100.00;101934.84;6249300;28;20064;-78
2021/06/09 04:16:43;;;;;;;16.45;9.93;;;;;;;15.40;100.00;101932.81;6247250;28;20463;-78
2021/06/09 04:19:47;;;;;;;15.93;11.10;;;;;;;15.43;100.00;101935.28;6245933;28;20476;-77
2021/06/09 04:22:48;;;;;;;13.70;10.48;;;;;;;15.51;100.00;101937.53;6248688;28;20053;-78
2021/06/09 04:25:51;;;;;;;14.05;10.48;;;;;;;15.45;100.00;101934.28;6249944;28;20143;-78
2021/06/09 04:28:55;;;;;;;18.17;9.95;;;;;;;15.47;100.00;101928.88;6249649;28;20053;-78
2021/06/09 04:31:56;;;;;;;11.48;10.05;;;;;;;15.50;100.00;101923.44;6272569;28;20049;-78
2021/06/09 04:34:59;;;;;;;12.45;10.48;;;;;;;15.50;100.00;101931.38;6274089;28;20076;-77
2021/06/09 04:38:00;;;;;;;13.10;9.25;;;;;;;15.51;100.00;101924.28;6274231;28;20048;-78
2021/06/09 04:41:02;;;;;;;13.52;9.50;;;;;;;15.48;100.00;101926.13;6273388;28;20443;-78
2021/06/09 04:44:03;;;;;;;14.68;8.95;;;;;;;15.50;100.00;101922.56;6274723;28;20045;-78
2021/06/09 04:47:05;;;;;;;13.77;8.90;;;;;;;15.50;100.00;101923.44;6274411;28;20056;-78
2021/06/09 04:50:07;;;;;;;12.82;9.10;;;;;;;15.51;100.00;101924.28;6274165;28;20057;-78
2021/06/09 04:53:11;;;;;;;10.32;8.70;;;;;;;15.55;100.00;101920.53;6272058;28;20065;-78
2021/06/09 04:56:14;;;;;;;11.80;8.73;;;;;;;15.57;100.00;101924.78;6273790;28;20057;-78
2021/06/09 04:59:14;;;;;;;9.70;7.82;;;;;;;15.59;100.00;101917.63;6274134;28;20041;-78
2021/06/09 05:02:18;;;;;;;12.60;8.50;;;;;;;15.61;100.00;101915.72;6272941;28;20048;-78
2021/06/09 05:05:19;;;;;;;10.90;7.38;;;;;;;15.64;100.00;101920.03;6273941;28;20053;-80
2021/06/09 05:08:20;;;;;;;11.90;7.03;;;;;;;15.66;100.00;101919.00;6273600;28;20519;-78
2021/06/09 05:11:29;;;;;;;9.80;7.00;;;;;;;15.66;100.00;101920.78;6273258;28;20478;-78
2021/06/09 05:14:35;;;;;;;10.25;6.38;;;;;;;15.68;100.00;101918.94;6273755;28;20052;-78
2021/06/09 05:17:41;;;;;;;16.63;7.20;;;;;;;15.70;100.00;101920.53;6255267;28;20049;-78
2021/06/09 05:20:45;;;;;;;10.57;5.80;;;;;;;15.71;99.28;101919.63;6244133;28;20052;-78
2021/06/09 05:23:52;;;;;;;14.73;6.30;;;;;;;15.76;100.00;101919.38;6248681;28;20049;-78
2021/06/09 05:26:55;;;;;;;10.40;6.38;;;;;;;15.81;100.00;101922.59;6248693;28;20107;-78
2021/06/09 05:29:58;;;;;;;11.15;6.43;;;;;;;15.82;100.00;101916.34;6248271;28;20049;-78
2021/06/09 05:33:01;;;;;;;13.18;5.93;;;;;;;15.86;100.00;101914.38;6247961;28;20053;-78
2021/06/09 05:36:04;;;;;;;9.05;5.97;;;;;;;15.93;100.00;101921.88;6248819;28;20057;-78
2021/06/09 05:39:05;;;;;;;9.77;6.00;;;;;;;15.91;100.00;101920.28;6248400;28;20045;-78
2021/06/09 05:42:09;;;;;;;9.00;5.90;;;;;;;15.90;100.00;101921.22;6247660;28;20056;-79
2021/06/09 05:45:11;;;;;;;7.72;6.53;;;;;;;15.91;100.00;101909.69;6248187;28;20057;-79
2021/06/09 05:48:12;;;;;;;26.75;16.55;;;;;;;15.94;100.00;101912.13;6248144;28;20049;-78
2021/06/09 05:51:14;;;;;;;14.63;11.68;;;;;;;15.90;100.00;101916.78;6247402;28;20045;-79
2021/06/09 05:54:17;;;;;;;10.80;7.60;;;;;;;15.93;100.00;101918.38;6247632;28;20076;-78
2021/06/09 05:57:19;;;;;;;8.65;5.82;;;;;;;16.00;100.00;101918.91;6248162;28;20045;-79
2021/06/09 06:00:22;;;;;;;11.13;6.18;;;;;;;16.05;100.00;101916.84;6247451;28;20045;-79
2021/06/09 06:03:24;;;;;;;7.95;5.90;;;;;;;16.13;100.00;101914.59;6247495;28;20064;-78
2021/06/09 06:06:25;;;;;;;13.02;5.88;;;;;;;16.22;100.00;101914.94;6247442;28;20140;-78
2021/06/09 06:09:26;;;;;;;10.93;5.10;;;;;;;16.30;100.00;101914.44;6247470;28;20051;-79
2021/06/09 06:12:30;;;;;;;10.32;5.10;;;;;;;16.38;100.00;101901.59;6247227;28;20049;-79
2021/06/09 06:15:31;;;;;;;6.75;4.43;;;;;;;16.47;100.00;101900.19;6247780;28;20500;-79
2021/06/09 06:18:34;;;;;;;9.18;3.90;;;;;;;16.49;100.00;101911.59;6246013;28;20464;-78
2021/06/09 06:21:35;;;;;;;11.63;4.47;;;;;;;16.54;100.00;101906.84;6247316;28;20064;-79
2021/06/09 06:24:38;;;;;;;8.52;4.00;;;;;;;16.59;100.00;101917.19;6247756;28;20096;-78
2021/06/09 06:27:41;;;;;;;4.30;3.90;;;;;;;16.64;100.00;101918.63;6247524;28;20049;-79
2021/06/09 06:30:42;;;;;;;8.65;3.63;;;;;;;16.71;99.81;101919.09;6246689;28;20049;-78
2021/06/09 06:33:46;;;;;;;8.55;4.03;;;;;;;16.73;98.82;101914.59;6247629;28;20057;-78
2021/06/09 06:36:48;;;;;;;3.88;3.25;;;;;;;16.76;98.81;101914.44;6247786;28;20053;-79
2021/06/09 06:39:49;;;;;;;9.20;3.53;;;;;;;16.83;97.70;101914.88;6247282;28;20056;-78
2021/06/09 06:42:53;;;;;;;6.72;3.30;;;;;;;16.84;98.15;101911.28;6246974;28;20073;-78
2021/06/09 06:45:54;;;;;;;5.82;2.63;;;;;;;16.89;97.25;101917.16;6246756;28;20049;-78
2021/06/09 06:48:56;;;;;;;3.45;2.65;;;;;;;16.92;97.83;101914.31;6247154;28;20111;-79
2021/06/09 06:51:58;;;;;;;5.00;2.70;;;;;;;16.92;98.39;101914.31;6246931;28;20049;-78
2021/06/09 06:54:59;;;;;;;6.20;2.60;;;;;;;16.94;98.44;101910.66;6246821;28;20050;-77
2021/06/09 06:58:01;;;;;;;6.40;2.88;;;;;;;16.94;98.35;101918.59;6246809;28;20056;-78
2021/06/09 07:01:04;;;;;;;4.55;2.78;;;;;;;16.97;98.80;101913.09;6246296;28;20105;-78
2021/06/09 07:04:06;;;;;;;5.18;2.70;;;;;;;17.01;97.96;101916.41;6246958;28;20069;-78
2021/06/09 07:07:07;;;;;;;8.60;2.42;;;;;;;17.07;97.31;101912.50;6238909;28;20045;-78
2021/06/09 07:10:12;;;;;;;4.97;2.47;;;;;;;17.13;95.83;101915.66;6246989;28;20049;-78
2021/06/09 07:13:15;;;;;;;6.93;2.63;;;;;;;17.17;94.91;101916.34;6247142;28;20054;-77
2021/06/09 07:16:17;;;;;;;4.57;2.30;;;;;;;17.20;93.81;101918.78;6248420;28;20643;-77
2021/06/09 07:19:18;;;;;;;5.10;3.10;;;;;;;17.21;94.95;101912.50;6248651;28;20500;-77
2021/06/09 07:22:19;;;;;;;18.98;3.13;;;;;;;17.23;93.94;101913.28;6251335;28;20057;-76
2021/06/09 07:25:22;;;;;;;4.28;2.55;;;;;;;17.28;95.11;101915.66;6252053;28;20403;-78
2021/06/09 07:28:27;;;;;;;6.75;2.88;;;;;;;17.41;94.03;101905.97;6251236;28;20045;-79
2021/06/09 07:31:31;;;;;;;6.53;2.33;;;;;;;17.47;92.60;101908.22;6250727;28;20045;-78
2021/06/09 07:34:32;;;;;;;7.95;2.40;;;;;;;17.58;92.63;101912.88;6251833;28;20504;-78
2021/06/09 07:37:37;;;;;;;2.97;2.30;;;;;;;17.59;92.25;101910.09;6251796;28;20052;-78
2021/06/09 07:40:40;;;;;;;7.35;2.95;;;;;;;17.69;89.40;101911.19;6250408;28;20046;-77
2021/06/09 07:43:44;;;;;;;7.25;2.90;;;;;;;17.88;88.17;101918.88;6250792;28;20745;-77
2021/06/09 07:46:47;;;;;;;5.65;2.88;;;;;;;17.99;87.42;101907.53;6251064;28;20098;-77
2021/06/09 07:49:49;;;;;;;4.80;2.70;;;;;;;18.09;79.55;101905.13;6248897;28;20049;-77
2021/06/09 07:52:51;;;;;;;9.85;3.10;;;;;;;18.18;81.32;101905.34;6252910;28;20049;-78
2021/06/09 07:55:53;;;;;;;5.55;3.17;;;;;;;18.22;81.90;101906.00;6250248;28;20420;-76
2021/06/09 07:58:55;;;;;;;9.15;3.22;;;;;;;18.32;79.88;101908.91;6249306;28;20041;-77
2021/06/09 08:01:56;;;;;;;15.25;3.33;;;;;;;18.38;80.77;101913.78;6249725;28;20424;-77
2021/06/09 08:04:57;;;;;;;5.63;2.80;;;;;;;18.44;80.93;101911.59;6250838;28;20508;-77
2021/06/09 08:07:59;;;;;;;8.50;3.00;;;;;;;18.45;83.62;101912.44;6249243;28;20046;-76
2021/06/09 08:11:01;;;;;;;7.00;3.80;;;;;;;18.56;82.99;101909.03;6248676;28;20037;-77
2021/06/09 08:14:03;;;;;;;7.75;3.13;;;;;;;18.57;83.13;101906.25;6249932;28;20475;-76
2021/06/09 08:17:07;;;;;;;6.93;3.13;;;;;;;18.57;83.88;101916.91;6249153;28;20111;-76
2021/06/09 08:20:10;;;;;;;5.80;3.40;;;;;;;18.67;84.16;101907.34;6249494;28;20136;-77
2021/06/09 08:23:11;;;;;;;7.22;3.15;;;;;;;18.64;83.90;101907.56;6247505;28;20061;-76
2021/06/09 08:26:14;;;;;;;8.43;3.30;;;;;;;18.59;83.57;101909.69;6249090;28;20045;-75
2021/06/09 08:29:16;;;;;;;10.13;3.22;;;;;;;18.48;84.91;101907.72;6247611;28;20049;-76
2021/06/09 08:32:17;;;;;;;13.88;3.97;;;;;;;18.47;85.47;101902.53;6248922;28;20053;-76
2021/06/09 08:35:18;;;;;;;8.68;3.60;;;;;;;18.39;85.88;101907.50;6248897;28;20091;-75
2021/06/09 08:38:19;;;;;;;7.38;3.03;;;;;;;18.32;86.04;101900.91;6249041;28;20049;-75
2021/06/09 08:41:22;;;;;;;6.10;3.22;;;;;;;18.28;87.25;101908.25;6248792;28;20053;-75
2021/06/09 08:44:25;;;;;;;5.90;3.92;;;;;;;18.22;87.78;101909.53;6248909;28;20049;-74
2021/06/09 08:47:26;;;;;;;8.68;3.67;;;;;;;18.19;87.88;101908.88;6248694;28;20390;-75
2021/06/09 08:50:27;;;;;;;8.45;3.50;;;;;;;18.21;89.05;101910.47;6248863;28;20045;-75
2021/06/09 08:53:29;;;;;;;5.95;3.78;;;;;;;18.31;88.72;101909.88;6249219;28;20053;-76
2021/06/09 08:56:32;;;;;;;4.95;3.17;;;;;;;18.44;88.31;101910.72;6248465;28;20053;-76
2021/06/09 08:59:34;;;;;;;5.53;3.92;;;;;;;18.73;86.36;101914.09;6248234;28;20059;-75
2021/06/09 09:02:35;;;;;;;6.55;4.13;;;;;;;18.80;83.62;101922.50;6248337;28;20080;-75
2021/06/09 09:05:36;;;;;;;12.30;4.20;;;;;;;19.08;83.29;101922.28;6247363;28;20053;-76
2021/06/09 09:08:37;;;;;;;7.43;3.78;;;;;;;19.23;82.99;101920.34;6247989;28;20512;-76
2021/06/09 09:11:39;;;;;;;7.53;4.30;;;;;;;19.23;83.12;101923.00;6247935;28;20067;-75
2021/06/09 09:14:41;;;;;;;9.23;4.95;;;;;;;19.39;82.52;101915.59;6248511;28;20054;-75
2021/06/09 09:17:51;;;;;;;6.82;4.80;;;;;;;19.29;84.49;101919.06;6247387;28;20064;-75
2021/06/09 09:20:52;;;;;;;9.63;4.10;;;;;;;19.30;86.57;101921.59;6246971;28;20144;-75
2021/06/09 09:23:52;;;;;;;8.38;4.93;;;;;;;19.32;86.33;101921.50;6246371;28;20045;-75
2021/06/09 09:27:01;;;;;;;8.27;4.47;;;;;;;19.31;84.44;101922.47;6247355;28;20049;-76
2021/06/09 09:30:07;;;;;;;9.30;5.17;;;;;;;19.32;82.58;101922.34;6247835;28;20046;-74
2021/06/09 09:33:09;;;;;;;9.45;5.28;;;;;;;19.34;82.85;101917.75;6246784;28;20485;-76
2021/06/09 09:36:21;;;;;;;8.00;4.82;;;;;;;19.54;86.32;101916.34;6248024;28;20049;-75
2021/06/09 09:39:22;;;;;;;9.10;5.68;;;;;;;19.53;85.31;101919.97;6246131;28;20148;-76
2021/06/09 09:42:30;;;;;;;7.30;5.13;;;;;;;19.64;82.00;101913.88;6246563;28;20057;-76
2021/06/09 09:45:34;;;;;;;10.38;5.50;;;;;;;19.79;80.64;101920.75;6247297;28;20416;-75
2021/06/09 09:48:37;;;;;;;11.63;6.25;;;;;;;20.02;82.52;101914.56;6247412;28;20057;-75
2021/06/09 09:51:56;;;;;;;14.35;6.53;;;;;;;19.94;82.94;101924.97;6246305;28;20132;-76
2021/06/09 09:54:59;;;;;;;;;;;;;;;20.00;83.83;101912.97;6247783;28;20047;-76
2021/06/09 09:58:07;;;;;;;8.65;5.97;;;;;;;20.24;85.10;101923.63;6246924;28;19921;-75
2021/06/09 10:01:11;;;;;;;10.10;5.90;;;;;;;20.51;84.00;101920.72;6245850;28;20072;-76
2021/06/09 10:04:16;;;;;;;12.25;6.15;;;;;;;20.74;83.72;101921.63;6246136;28;20550;-76
2021/06/09 10:07:17;;;;;;;10.82;7.40;;;;;;;20.83;83.61;101912.88;6246851;28;20493;-76
2021/06/09 10:10:24;;;;;;;9.80;7.70;;;;;;;21.09;82.08;101910.00;6246457;28;20052;-75
2021/06/09 10:13:28;;;;;;;12.35;8.50;;;;;;;21.40;73.86;101906.59;6245958;28;20054;-75
2021/06/09 10:16:33;;;;;;;13.10;8.75;;;;;;;21.24;76.22;101914.09;6245966;28;20421;-76
2021/06/09 10:19:36;;;;;;;15.88;8.00;;;;;;;21.17;79.29;101900.38;6246135;28;20103;-76
2021/06/09 10:22:39;;;;;;;15.27;7.10;;;;;;;21.38;78.94;101902.34;6246077;28;20049;-76
2021/06/09 10:25:40;;;;;;;13.57;9.15;;;;;;;21.74;74.75;101909.19;6246587;28;20049;-75
2021/06/09 10:29:05;;;;;;;11.68;8.10;;;;;;;21.74;73.54;101909.19;6247159;28;20073;-76
2021/06/09 10:32:10;;;;;;;16.17;7.53;;;;;;;21.59;76.28;101899.75;6245825;28;20195;-76
2021/06/09 10:35:11;;;;;;;18.02;8.13;;;;;;;21.55;77.55;101898.31;6247109;28;20524;-76
2021/06/09 10:38:12;;;;;;;11.55;6.63;;;;;;;21.60;78.30;101890.75;6246857;28;20062;-76
2021/06/09 10:41:14;;;;;;;10.88;7.15;;;;;;;21.80;78.53;101895.28;6246240;28;20103;-77
2021/06/09 10:44:18;;;;;;;11.93;7.75;;;;;;;21.97;78.46;101891.22;6247015;28;20500;-75
2021/06/09 10:47:25;;;;;;;8.52;6.13;;;;;;;22.04;75.84;101887.06;6246786;28;20091;-75
2021/06/09 10:50:26;;;;;;;11.60;7.35;;;;;;;22.04;77.27;101881.72;6248593;28;20057;-75
2021/06/09 10:53:28;;;;;;;10.63;7.43;;;;;;;22.06;76.60;101890.47;6251379;28;20053;-75
2021/06/09 10:56:29;;;;;;;11.27;7.55;;;;;;;22.19;74.67;101875.09;6252014;28;20056;-76
2021/06/09 10:59:32;;;;;;;14.60;8.50;;;;;;;22.28;72.79;101878.81;6251621;28;20119;-76
2021/06/09 11:02:35;;;;;;;10.07;7.25;;;;;;;22.22;74.38;101868.66;6251851;28;20464;-77
2021/06/09 11:05:36;;;;;;;11.32;7.63;;;;;;;22.22;79.02;101871.31;6253770;28;20089;-76
2021/06/09 11:08:38;;;;;;;11.95;8.70;;;;;;;22.39;75.35;101860.03;6252938;28;20417;-75
2021/06/09 11:11:38;;;;;;;12.50;8.45;;;;;;;22.68;73.99;101872.72;6251045;28;20205;-75
2021/06/09 11:14:45;;;;;;;11.18;8.48;;;;;;;22.71;71.04;101867.97;6249753;28;20089;-74
2021/06/09 11:17:52;;;;;;;11.60;7.88;;;;;;;23.01;69.77;101860.91;6259701;28;20052;-76
2021/06/09 11:20:58;;;;;;;12.43;8.20;;;;;;;23.08;69.86;101861.22;6275404;28;20049;-76
2021/06/09 11:24:09;;;;;;;12.13;8.95;;;;;;;22.89;68.83;101862.84;6265896;28;20501;-76
2021/06/09 11:27:28;;;;;;;13.95;8.63;;;;;;;22.74;74.75;101870.34;6250589;28;20425;-76
2021/06/09 11:30:57;;;;;;;15.90;9.45;;;;;;;22.81;69.54;101856.44;6251013;28;20595;-75
2021/06/09 11:34:01;;;;;;;;;;;;;;;22.47;72.69;101853.97;6250762;28;20068;-75
2021/06/09 11:37:09;;;;;;;12.65;9.40;;;;;;;22.35;73.41;101852.38;6250153;28;19920;-75
2021/06/09 11:40:10;;;;;;;12.35;9.27;;;;;;;22.23;73.41;101855.13;6249403;28;20041;-76
2021/06/09 11:43:19;;;;;;;15.50;9.00;;;;;;;22.03;76.40;101856.78;6250483;28;20049;-75
2021/06/09 11:46:22;;;;;;;10.57;8.38;;;;;;;21.95;77.51;101855.72;6250464;28;20508;-76
2021/06/09 11:49:25;;;;;;;13.80;9.30;;;;;;;22.91;71.92;101846.63;6250474;28;20144;-76
2021/06/09 11:52:26;;;;;;;15.80;8.98;;;;;;;23.94;66.69;101843.59;6250214;28;20045;-74
2021/06/09 11:55:27;;;;;;;12.27;9.65;;;;;;;24.20;67.62;101841.13;6250136;28;20046;-75
2021/06/09 11:58:36;;;;;;;15.35;10.18;;;;;;;24.51;65.26;101837.28;6249923;28;20053;-76
2021/06/09 12:01:39;;;;;;;26.70;9.80;;;;;;;24.89;66.06;101834.59;6248895;28;20382;-75
2021/06/09 12:04:42;;;;;;;14.68;8.25;;;;;;;25.35;68.25;101835.53;6273252;22;20041;-77
2021/06/09 12:07:43;;;;;;;14.65;9.63;;;;;;;25.68;60.67;101824.06;6250087;28;20103;-75
2021/06/09 12:10:44;;;;;;;12.55;8.75;;;;;;;25.78;60.03;101832.09;6249455;28;20664;-76
2021/06/09 12:13:45;;;;;;;13.50;8.63;;;;;;;25.76;60.74;101832.25;6238533;28;20052;-75
2021/06/09 12:16:47;;;;;;;16.58;7.80;;;;;;;25.67;63.34;101827.75;6225674;28;20050;-75
2021/06/09 12:19:57;;;;;;;12.60;8.40;;;;;;;25.50;61.62;101828.59;6228460;28;20421;-75
2021/06/09 12:22:58;;;;;;;12.68;8.88;;;;;;;24.93;63.00;101827.91;6224905;28;20096;-78
2021/06/09 12:25:59;;;;;;;11.00;8.60;;;;;;;24.59;68.07;101825.81;6225168;28;20054;-77
2021/06/09 12:29:01;;;;;;;12.95;7.60;;;;;;;24.97;66.28;101823.94;6226049;28;20057;-78
2021/06/09 12:32:15;;;;;;;17.77;8.40;;;;;;;25.53;65.06;101820.22;6227272;28;20046;-79
2021/06/09 12:35:19;;;;;;;12.50;7.97;;;;;;;25.94;61.05;101820.63;6231491;28;20050;-79
2021/06/09 12:38:27;;;;;;;12.93;8.43;;;;;;;26.19;57.64;101819.78;6230290;28;20045;-78
2021/06/09 12:41:30;;;;;;;22.05;8.27;;;;;;;26.38;59.07;101815.19;6233258;28;20038;-79
2021/06/09 12:44:31;;;;;;;16.30;7.78;;;;;;;26.47;59.46;101812.41;6230950;28;20448;-79
2021/06/09 12:47:34;;;;;;;13.10;7.90;;;;;;;26.49;55.43;101805.03;6229529;28;20060;-77
2021/06/09 12:50:39;;;;;;;9.98;8.38;;;;;;;25.54;58.12;101803.06;6226924;28;20412;-78
2021/06/09 12:53:40;;;;;;;13.75;8.68;;;;;;;24.72;60.09;101807.50;6227153;28;20425;-78
2021/06/09 12:56:41;;;;;;;9.80;8.20;;;;;;;24.44;63.14;101801.25;6227489;28;20057;-79
2021/06/09 12:59:42;;;;;;;9.60;7.70;;;;;;;24.26;62.17;101806.50;6226632;28;20050;-79
2021/06/09 13:02:42;;;;;;;9.27;7.90;;;;;;;24.26;61.27;101805.66;6226189;28;20069;-78
2021/06/09 13:05:48;;;;;;;13.23;8.30;;;;;;;23.90;65.18;101800.06;6228211;28;20717;-79
2021/06/09 13:08:51;;;;;;;13.63;8.35;;;;;;;23.95;67.76;101810.38;6226267;28;20054;-79
2021/06/09 13:11:54;;;;;;;10.95;8.40;;;;;;;24.40;63.08;101796.31;6226945;28;20049;-79
2021/06/09 13:14:55;;;;;;;12.60;8.10;;;;;;;24.30;64.55;101797.16;6226498;28;20129;-79
2021/06/09 13:17:56;;;;;;;9.82;7.82;;;;;;;24.10;63.64;101798.19;6228067;28;20060;-78
2021/06/09 13:21:13;;;;;;;11.27;8.55;;;;;;;23.70;67.57;101801.88;6224907;28;20049;-77
2021/06/09 13:24:19;;;;;;;12.02;8.52;;;;;;;23.77;67.73;101803.03;6223163;28;20077;-77
2021/06/09 13:27:20;;;;;;;11.43;8.00;;;;;;;23.76;65.11;101789.75;6225194;28;20057;-77
2021/06/09 13:30:22;;;;;;;16.17;8.32;;;;;;;24.57;62.26;101786.63;6226218;28;20390;-79
2021/06/09 13:33:23;;;;;;;10.82;8.05;;;;;;;24.57;66.16;101782.09;6226835;28;20053;-79
2021/06/09 13:36:26;;;;;;;14.13;8.00;;;;;;;25.19;62.24;101783.19;6226471;28;20049;-79
2021/06/09 13:39:36;;;;;;;11.60;7.70;;;;;;;25.79;61.87;101769.13;6227528;28;20056;-79
2021/06/09 13:42:40;;;;;;;11.88;7.28;;;;;;;26.29;61.51;101765.78;6226105;28;20054;-78
2021/06/09 13:45:43;;;;;;;8.45;7.28;;;;;;;26.39;59.89;101758.44;6224673;28;20061;-79
2021/06/09 13:48:48;;;;;;;10.60;7.50;;;;;;;26.36;60.45;101760.59;6225536;28;20078;-79
2021/06/09 13:51:51;;;;;;;11.27;8.95;;;;;;;26.45;57.39;101754.28;6223757;28;20129;-78
2021/06/09 13:54:54;;;;;;;9.68;7.53;;;;;;;25.84;57.73;101752.50;6226601;28;20064;-78
2021/06/09 13:57:55;;;;;;;12.73;6.82;;;;;;;25.42;59.04;101756.69;6229278;28;20080;-79
2021/06/09 14:00:58;;;;;;;11.82;7.43;;;;;;;25.02;63.39;101755.22;6229206;28;20045;-78